Time;durP1;ratioP1;P1;durP2;ratioP2;P2;SDS_P1;SDS_P2;PMS_P1;PMS_P2;Temp;Humidity;BMP_temperature;BMP_pressure;BME280_temperature;BME280_humidity;BME280_pressure;Samples;Min_cycle;Max_cycle;Signal;HPM_P1;HPM_P2
2024/01/14 00:01:44;;;;;;;23.55;15.60;;;7.20;68.40;;;;;;5035604;28;20454;-71
2024/01/14 00:04:10;;;;;;;22.83;15.10;;;7.30;68.20;;;;;;5035375;28;20034;-72
2024/01/14 00:06:36;;;;;;;24.98;15.02;;;7.40;68.10;;;;;;5034522;28;20461;-72
2024/01/14 00:09:01;;;;;;;20.63;14.68;;;7.40;67.90;;;;;;5035846;28;20445;-72
2024/01/14 00:11:27;;;;;;;24.42;15.60;;;7.50;68.10;;;;;;5025543;28;20485;-72
2024/01/14 00:13:53;;;;;;;26.15;15.88;;;7.50;67.60;;;;;;5016407;28;20061;-71
2024/01/14 00:16:18;;;;;;;23.35;15.73;;;7.40;68.10;;;;;;5028012;28;20513;-72
2024/01/14 00:18:44;;;;;;;23.40;15.48;;;7.40;68.20;;;;;;5035280;28;20387;-71
2024/01/14 00:21:10;;;;;;;26.52;16.00;;;7.50;68.70;;;;;;5029586;28;20041;-72
2024/01/14 00:23:35;;;;;;;23.63;16.17;;;7.50;69.00;;;;;;5016298;28;20183;-72
2024/01/14 00:26:01;;;;;;;22.85;15.18;;;7.50;69.10;;;;;;5015270;28;20498;-71
2024/01/14 00:28:27;;;;;;;26.50;14.77;;;7.40;68.60;;;;;;4997790;28;20025;-71
2024/01/14 00:30:53;;;;;;;21.15;15.38;;;7.20;68.50;;;;;;5015239;28;20049;-72
2024/01/14 00:33:19;;;;;;;21.25;15.65;;;7.30;69.20;;;;;;5015299;28;20045;-71
2024/01/14 00:35:45;;;;;;;24.83;15.57;;;7.30;68.80;;;;;;5014376;28;20128;-71
2024/01/14 00:38:11;;;;;;;23.25;15.57;;;7.30;68.80;;;;;;5014800;28;20105;-71
2024/01/14 00:40:37;;;;;;;23.63;14.98;;;7.20;68.90;;;;;;5014587;28;20048;-71
2024/01/14 00:43:03;;;;;;;28.60;17.23;;;7.20;69.10;;;;;;5014950;28;20030;-71
2024/01/14 00:45:29;;;;;;;20.95;15.45;;;7.30;69.20;;;;;;5014734;28;20046;-72
2024/01/14 00:47:55;;;;;;;23.73;15.40;;;7.20;69.50;;;;;;5014450;28;20489;-71
2024/01/14 00:50:21;;;;;;;24.60;15.52;;;7.20;69.30;;;;;;5000281;28;20556;-70
2024/01/14 00:52:47;;;;;;;22.70;15.57;;;7.20;69.80;;;;;;5014478;28;20478;-72
2024/01/14 00:55:13;;;;;;;23.95;14.15;;;7.30;69.80;;;;;;5014285;28;20041;-72
2024/01/14 00:57:39;;;;;;;20.70;14.82;;;7.30;69.60;;;;;;5014610;28;20030;-72
2024/01/14 01:00:09;;;;;;;21.35;14.18;;;7.20;69.40;;;;;;5027201;28;20033;-72
2024/01/14 01:02:35;;;;;;;22.67;15.57;;;7.20;70.10;;;;;;5007527;28;20049;-72
2024/01/14 01:05:02;;;;;;;21.70;14.07;;;7.10;69.50;;;;;;5013885;28;20145;-72
2024/01/14 01:07:27;;;;;;;22.85;14.35;;;7.00;69.10;;;;;;5012093;28;20026;-71
2024/01/14 01:09:53;;;;;;;25.17;14.63;;;7.00;69.80;;;;;;5033361;28;20087;-72
2024/01/14 01:12:19;;;;;;;21.50;14.57;;;7.00;69.20;;;;;;5033922;28;20033;-71
2024/01/14 01:14:47;;;;;;;23.80;14.57;;;7.00;69.40;;;;;;5014231;28;20030;-73
2024/01/14 01:17:13;;;;;;;23.08;14.57;;;7.00;69.80;;;;;;5014613;28;20105;-72
2024/01/14 01:19:39;;;;;;;19.77;14.23;;;7.00;69.40;;;;;;5013992;28;20334;-72
2024/01/14 01:22:05;;;;;;;21.70;15.25;;;7.10;69.60;;;;;;5013936;28;20103;-71
2024/01/14 01:24:31;;;;;;;21.55;14.75;;;7.20;69.40;;;;;;4996235;28;20136;-71
2024/01/14 01:26:56;;;;;;;21.10;14.73;;;7.20;69.40;;;;;;4996262;28;20073;-72
2024/01/14 01:29:22;;;;;;;21.40;13.95;;;7.20;69.30;;;;;;5016946;28;20025;-72
2024/01/14 01:31:48;;;;;;;22.17;15.43;;;7.30;69.40;;;;;;5033318;28;20417;-71
2024/01/14 01:34:13;;;;;;;20.05;15.25;;;7.20;69.80;;;;;;5033217;28;20037;-72
2024/01/14 01:36:40;;;;;;;21.75;15.27;;;7.10;69.60;;;;;;5033913;28;20041;-71
2024/01/14 01:39:05;;;;;;;23.10;14.85;;;7.00;70.00;;;;;;5023523;28;20490;-71
2024/01/14 01:41:31;;;;;;;23.60;14.38;;;7.00;70.00;;;;;;4995743;28;20097;-71
2024/01/14 01:43:56;;;;;;;22.23;14.80;;;6.90;69.70;;;;;;5013335;28;20077;-71
2024/01/14 01:46:22;;;;;;;21.17;15.00;;;6.90;69.70;;;;;;5013275;28;20041;-72
2024/01/14 01:48:48;;;;;;;23.02;14.77;;;6.90;69.70;;;;;;5012654;28;20075;-71
2024/01/14 01:51:14;;;;;;;20.08;14.43;;;6.80;69.60;;;;;;5013457;28;20033;-73
2024/01/14 01:53:40;;;;;;;18.08;13.57;;;6.80;69.90;;;;;;5013503;28;20490;-71
2024/01/14 01:56:06;;;;;;;20.73;14.20;;;6.80;69.90;;;;;;5014254;28;20489;-71
2024/01/14 01:58:32;;;;;;;19.08;13.55;;;6.80;69.60;;;;;;4996159;28;20030;-72
2024/01/14 02:00:58;;;;;;;23.23;13.60;;;6.70;69.20;;;;;;5013110;28;20511;-71
2024/01/14 02:03:25;;;;;;;18.52;13.82;;;6.70;69.60;;;;;;5013364;28;20112;-72
2024/01/14 02:05:55;;;;;;;20.67;14.00;;;6.60;69.40;;;;;;5012900;28;20533;-71
2024/01/14 02:08:20;;;;;;;20.73;12.60;;;6.70;69.50;;;;;;5013633;28;20026;-72
2024/01/14 02:10:46;;;;;;;19.95;12.75;;;6.70;69.50;;;;;;5013707;28;20499;-72
2024/01/14 02:13:12;;;;;;;20.17;13.70;;;6.70;69.60;;;;;;4995912;28;20026;-71
2024/01/14 02:15:38;;;;;;;22.80;13.77;;;6.70;69.50;;;;;;5013047;28;20034;-71
2024/01/14 02:18:04;;;;;;;19.50;13.15;;;6.60;69.20;;;;;;5013692;28;20053;-70
2024/01/14 02:20:29;;;;;;;22.30;12.68;;;6.50;70.00;;;;;;5025255;28;20065;-71
2024/01/14 02:22:56;;;;;;;18.77;11.90;;;6.60;69.90;;;;;;5032835;28;20374;-71
2024/01/14 02:25:22;;;;;;;17.25;11.63;;;6.60;69.60;;;;;;5032611;28;20231;-71
2024/01/14 02:27:49;;;;;;;20.77;12.35;;;6.60;69.80;;;;;;5015150;28;20161;-71
2024/01/14 02:30:15;;;;;;;20.05;12.90;;;6.50;69.10;;;;;;5033048;28;20068;-72
2024/01/14 02:32:40;;;;;;;17.30;11.40;;;6.40;70.00;;;;;;5035701;28;20033;-72
2024/01/14 02:35:06;;;;;;;17.77;11.88;;;6.50;69.60;;;;;;5033519;28;20061;-71
2024/01/14 02:37:37;;;;;;;19.67;12.63;;;6.50;70.20;;;;;;5032358;28;20144;-71
2024/01/14 02:40:03;;;;;;;17.02;11.45;;;6.50;69.40;;;;;;5032213;28;20039;-72
2024/01/14 02:42:29;;;;;;;17.95;11.30;;;6.50;70.30;;;;;;5032154;28;20044;-71
2024/01/14 02:44:55;;;;;;;17.42;11.70;;;6.50;69.40;;;;;;5032312;28;20394;-71
2024/01/14 02:47:20;;;;;;;19.23;11.95;;;6.50;69.60;;;;;;5032332;28;20084;-72
2024/01/14 02:49:46;;;;;;;17.55;11.27;;;6.50;69.50;;;;;;5031631;28;20050;-71
2024/01/14 02:52:12;;;;;;;15.65;10.18;;;6.50;69.70;;;;;;5032545;28;20064;-72
2024/01/14 02:54:38;;;;;;;15.18;10.38;;;6.40;69.30;;;;;;5032965;28;20146;-71
2024/01/14 02:57:03;;;;;;;15.10;10.65;;;6.40;69.20;;;;;;5032518;28;20515;-71
2024/01/14 02:59:32;;;;;;;18.65;11.05;;;6.40;69.70;;;;;;5034128;28;20393;-72
2024/01/14 03:01:58;;;;;;;18.50;10.63;;;6.40;69.60;;;;;;5036217;28;20393;-72
2024/01/14 03:04:24;;;;;;;16.27;10.38;;;6.30;69.50;;;;;;5018330;28;20045;-73
2024/01/14 03:06:49;;;;;;;16.58;11.20;;;6.30;69.70;;;;;;5036087;28;20045;-72
2024/01/14 03:09:15;;;;;;;15.52;10.68;;;6.40;69.60;;;;;;5035995;28;20495;-71
2024/01/14 03:11:41;;;;;;;16.40;10.55;;;6.40;69.30;;;;;;5035856;28;20034;-72
2024/01/14 03:14:06;;;;;;;17.75;10.93;;;6.40;69.30;;;;;;5018392;28;20065;-72
2024/01/14 03:16:32;;;;;;;16.58;11.20;;;6.40;69.40;;;;;;5036126;28;20044;-72
2024/01/14 03:18:58;;;;;;;15.30;10.20;;;6.50;69.40;;;;;;5036031;28;20040;-71
2024/01/14 03:21:23;;;;;;;15.68;9.93;;;6.50;69.40;;;;;;5036037;28;20033;-71
2024/01/14 03:23:49;;;;;;;15.77;9.98;;;6.50;69.20;;;;;;5035889;28;20033;-70
2024/01/14 03:26:15;;;;;;;13.90;9.68;;;6.50;69.20;;;;;;5017821;28;20041;-71
2024/01/14 03:28:40;;;;;;;14.95;9.68;;;6.50;69.40;;;;;;5035780;28;20436;-71
2024/01/14 03:31:08;;;;;;;15.52;9.07;;;6.50;69.40;;;;;;5035680;28;20041;-71
2024/01/14 03:33:34;;;;;;;15.25;9.75;;;6.50;69.20;;;;;;5034996;28;20038;-71
2024/01/14 03:36:03;;;;;;;12.63;9.02;;;6.50;69.00;;;;;;5009303;28;20052;-72
2024/01/14 03:38:29;;;;;;;12.90;8.77;;;6.50;70.10;;;;;;5016987;28;20034;-70
2024/01/14 03:40:54;;;;;;;15.13;9.55;;;6.50;69.50;;;;;;5015750;28;20045;-70
2024/01/14 03:43:20;;;;;;;15.10;9.98;;;6.50;69.50;;;;;;5016236;28;20540;-72
2024/01/14 03:45:46;;;;;;;15.57;9.70;;;6.50;69.70;;;;;;5015267;28;20498;-72
2024/01/14 03:48:11;;;;;;;14.50;9.80;;;6.50;69.40;;;;;;5015788;28;20073;-71
2024/01/14 03:50:37;;;;;;;15.07;9.70;;;6.50;69.40;;;;;;5015574;28;20517;-72
2024/01/14 03:53:03;;;;;;;13.80;9.77;;;6.50;69.40;;;;;;5015699;28;20512;-70
2024/01/14 03:55:29;;;;;;;14.68;9.57;;;6.40;69.40;;;;;;5015557;28;20034;-72
2024/01/14 03:57:54;;;;;;;13.88;9.18;;;6.40;69.80;;;;;;5015543;28;20413;-71
2024/01/14 04:00:20;;;;;;;18.23;10.18;;;6.40;69.60;;;;;;5015511;28;20041;-72
2024/01/14 04:02:46;;;;;;;14.60;9.50;;;6.40;69.80;;;;;;5015102;28;20061;-70
2024/01/14 04:05:12;;;;;;;16.70;9.32;;;6.40;69.90;;;;;;5015441;28;20073;-71
2024/01/14 04:07:37;;;;;;;17.27;10.20;;;6.40;70.00;;;;;;4997716;28;20110;-71
2024/01/14 04:10:03;;;;;;;14.35;10.05;;;6.40;70.20;;;;;;5014705;28;20030;-72
2024/01/14 04:12:29;;;;;;;14.95;9.68;;;6.40;70.50;;;;;;5014644;28;20037;-71
2024/01/14 04:14:55;;;;;;;16.63;9.65;;;6.40;70.00;;;;;;5015194;28;20038;-72
2024/01/14 04:17:20;;;;;;;14.75;9.60;;;6.40;70.00;;;;;;5015092;28;20085;-72
2024/01/14 04:19:46;;;;;;;13.90;9.50;;;6.40;70.10;;;;;;5015036;28;20041;-72
2024/01/14 04:22:12;;;;;;;13.80;9.35;;;6.40;70.10;;;;;;5015148;28;20574;-71
2024/01/14 04:24:38;;;;;;;15.10;9.52;;;6.40;70.30;;;;;;4997514;28;20042;-72
2024/01/14 04:27:04;;;;;;;14.25;9.73;;;6.40;70.90;;;;;;5015377;28;20026;-70
2024/01/14 04:29:29;;;;;;;15.13;9.68;;;6.40;70.70;;;;;;5014972;28;20165;-72
2024/01/14 04:31:55;;;;;;;13.38;9.10;;;6.40;70.80;;;;;;5014594;28;20507;-70
2024/01/14 04:34:21;;;;;;;14.05;8.95;;;6.40;70.30;;;;;;5014836;28;20049;-71
2024/01/14 04:36:46;;;;;;;12.77;9.40;;;6.40;70.20;;;;;;4997184;28;20069;-73
2024/01/14 04:39:12;;;;;;;13.68;9.73;;;6.40;70.50;;;;;;4998145;28;20044;-71
2024/01/14 04:41:39;;;;;;;13.98;9.95;;;6.40;70.50;;;;;;4998380;28;20034;-72
2024/01/14 04:44:04;;;;;;;14.23;9.68;;;6.30;70.50;;;;;;5017001;28;20072;-71
2024/01/14 04:46:30;;;;;;;16.50;10.18;;;6.30;70.80;;;;;;5014927;28;20161;-70
2024/01/14 04:48:56;;;;;;;13.75;9.73;;;6.30;71.00;;;;;;5014198;28;20572;-71
2024/01/14 04:51:21;;;;;;;14.45;9.68;;;6.30;70.90;;;;;;5014424;28;20038;-71
2024/01/14 04:53:47;;;;;;;16.55;9.88;;;6.30;71.00;;;;;;5014420;28;20037;-73
2024/01/14 04:56:13;;;;;;;15.90;10.82;;;6.30;70.80;;;;;;4996815;28;20027;-71
2024/01/14 04:58:39;;;;;;;15.27;11.00;;;6.30;71.60;;;;;;5014143;28;20355;-70
2024/01/14 05:01:04;;;;;;;16.73;10.32;;;6.30;71.20;;;;;;5014297;28;20042;-72
2024/01/14 05:03:30;;;;;;;13.18;10.13;;;6.30;70.90;;;;;;5014238;28;20045;-71
2024/01/14 05:05:56;;;;;;;15.43;10.73;;;6.30;70.90;;;;;;5014135;28;20402;-71
2024/01/14 05:08:21;;;;;;;16.40;10.18;;;6.30;71.10;;;;;;5014054;28;20038;-71
2024/01/14 05:10:47;;;;;;;16.05;10.63;;;6.30;71.00;;;;;;5014006;28;20505;-70
2024/01/14 05:13:13;;;;;;;14.80;10.43;;;6.40;71.20;;;;;;5014082;28;20243;-71
2024/01/14 05:15:39;;;;;;;14.95;9.95;;;6.30;71.30;;;;;;5014136;28;20034;-71
2024/01/14 05:18:05;;;;;;;14.73;10.30;;;6.30;71.40;;;;;;5014058;28;20127;-71
2024/01/14 05:20:31;;;;;;;15.82;10.93;;;6.30;71.50;;;;;;5013714;28;20052;-71
2024/01/14 05:22:57;;;;;;;17.17;11.18;;;6.20;71.80;;;;;;5013949;28;20445;-71
2024/01/14 05:25:22;;;;;;;15.70;11.00;;;6.10;71.80;;;;;;5013983;28;20046;-71
2024/01/14 05:27:48;;;;;;;15.32;10.15;;;6.10;72.00;;;;;;5014174;28;20034;-72
2024/01/14 05:30:14;;;;;;;18.25;10.75;;;6.10;72.30;;;;;;5014228;28;20561;-71
2024/01/14 05:32:40;;;;;;;21.55;10.93;;;6.00;72.60;;;;;;5013505;28;20033;-71
2024/01/14 05:35:06;;;;;;;17.80;11.23;;;6.10;72.40;;;;;;5013556;28;20037;-72
2024/01/14 05:37:32;;;;;;;14.48;10.57;;;6.10;72.30;;;;;;4995893;28;20108;-71
2024/01/14 05:39:57;;;;;;;18.38;11.30;;;6.10;72.70;;;;;;5013995;28;20117;-71
2024/01/14 05:42:23;;;;;;;19.48;10.48;;;6.10;72.60;;;;;;5014643;28;20042;-72
2024/01/14 05:44:49;;;;;;;16.50;10.90;;;6.10;72.50;;;;;;5013786;28;20057;-72
2024/01/14 05:47:15;;;;;;;16.27;11.50;;;6.10;72.60;;;;;;4995662;28;20371;-70
2024/01/14 05:49:41;;;;;;;20.88;15.18;;;6.00;72.60;;;;;;5013355;28;20053;-71
2024/01/14 05:52:07;;;;;;;15.32;11.25;;;5.90;73.20;;;;;;5013471;28;20030;-71
2024/01/14 05:54:32;;;;;;;19.40;13.63;;;5.90;73.20;;;;;;5013513;28;20138;-71
2024/01/14 05:56:58;;;;;;;16.63;11.63;;;5.80;73.40;;;;;;5013366;28;20156;-72
2024/01/14 05:59:24;;;;;;;21.65;14.45;;;5.80;73.50;;;;;;4995986;28;20066;-71
2024/01/14 06:01:50;;;;;;;16.92;11.38;;;5.90;73.60;;;;;;5013237;28;20101;-71
2024/01/14 06:04:15;;;;;;;18.10;12.13;;;6.00;73.20;;;;;;4996140;28;20495;-70
2024/01/14 06:06:41;;;;;;;20.63;12.02;;;6.00;73.00;;;;;;5013437;28;20121;-71
2024/01/14 06:09:07;;;;;;;17.40;12.38;;;6.00;73.20;;;;;;5012937;28;20038;-71
2024/01/14 06:11:33;;;;;;;18.60;12.55;;;6.00;73.10;;;;;;4995441;28;20178;-73
2024/01/14 06:13:58;;;;;;;16.30;11.23;;;6.00;73.00;;;;;;5012744;28;20030;-71
2024/01/14 06:16:25;;;;;;;19.08;12.32;;;6.00;72.70;;;;;;5012894;28;20034;-72
2024/01/14 06:18:51;;;;;;;19.02;12.88;;;6.00;73.10;;;;;;5013095;28;20461;-72
2024/01/14 06:21:17;;;;;;;21.20;12.25;;;6.00;73.20;;;;;;5012688;28;20085;-71
2024/01/14 06:23:42;;;;;;;21.75;12.07;;;6.00;73.20;;;;;;5012615;28;20034;-71
2024/01/14 06:26:17;;;;;;;17.27;11.68;;;6.10;73.20;;;;;;5012812;28;20123;-71
2024/01/14 06:28:43;;;;;;;17.17;11.63;;;6.10;74.10;;;;;;5012736;28;20049;-71
2024/01/14 06:31:09;;;;;;;25.30;11.68;;;6.10;73.10;;;;;;5012902;28;20034;-70
2024/01/14 06:33:35;;;;;;;22.77;15.18;;;6.00;73.30;;;;;;5012723;28;20033;-71
2024/01/14 06:36:05;;;;;;;17.55;11.45;;;6.00;73.20;;;;;;5012601;28;20081;-71
2024/01/14 06:38:30;;;;;;;17.08;11.18;;;6.00;73.10;;;;;;4995116;28;20038;-71
2024/01/14 06:40:56;;;;;;;18.90;13.23;;;6.00;73.30;;;;;;5012434;28;20096;-72
2024/01/14 06:43:22;;;;;;;21.60;14.20;;;6.00;73.30;;;;;;5012484;28;20038;-71
2024/01/14 06:45:48;;;;;;;18.58;11.18;;;6.00;73.40;;;;;;5012626;28;20125;-71
2024/01/14 06:48:13;;;;;;;17.20;12.02;;;6.10;73.20;;;;;;5012535;28;20220;-72
2024/01/14 06:50:39;;;;;;;18.50;10.75;;;6.00;73.10;;;;;;5012377;28;20054;-72
2024/01/14 06:53:05;;;;;;;16.02;10.77;;;6.00;73.00;;;;;;5021352;28;20040;-71
2024/01/14 06:55:30;;;;;;;15.95;10.65;;;6.00;73.10;;;;;;5032251;28;20085;-70
2024/01/14 06:57:56;;;;;;;16.67;11.23;;;6.10;73.20;;;;;;5031688;28;20099;-72
2024/01/14 07:00:21;;;;;;;15.77;11.10;;;6.20;73.00;;;;;;5031909;28;20037;-72
2024/01/14 07:02:47;;;;;;;14.95;9.82;;;6.20;72.70;;;;;;5032198;28;20033;-72
2024/01/14 07:05:13;;;;;;;14.13;10.00;;;6.20;72.30;;;;;;5031873;28;20081;-72
2024/01/14 07:07:39;;;;;;;14.73;10.40;;;6.30;72.60;;;;;;5032478;28;20041;-71
2024/01/14 07:10:05;;;;;;;16.20;11.15;;;6.30;71.80;;;;;;5031674;28;20034;-72
2024/01/14 07:12:31;;;;;;;16.00;10.40;;;6.40;73.30;;;;;;5031533;28;20022;-72
2024/01/14 07:14:57;;;;;;;16.98;10.05;;;6.40;71.90;;;;;;5031763;28;20445;-71
2024/01/14 07:17:23;;;;;;;15.57;10.50;;;6.50;72.00;;;;;;5031647;28;20109;-71
2024/01/14 07:19:48;;;;;;;15.60;10.63;;;6.50;71.50;;;;;;5031406;28;20509;-70
2024/01/14 07:22:14;;;;;;;15.50;10.10;;;6.60;70.90;;;;;;5031630;28;20104;-72
2024/01/14 07:24:40;;;;;;;16.77;10.60;;;6.80;71.00;;;;;;5031734;28;20398;-72
2024/01/14 07:27:05;;;;;;;18.92;10.52;;;6.80;70.80;;;;;;5031992;28;20036;-71
2024/01/14 07:29:31;;;;;;;16.02;9.63;;;6.80;70.00;;;;;;5031713;28;20037;-71
2024/01/14 07:31:57;;;;;;;18.23;10.23;;;7.10;70.40;;;;;;5031557;28;20074;-72
2024/01/14 07:34:23;;;;;;;16.75;11.10;;;7.80;68.90;;;;;;5031420;28;20052;-72
2024/01/14 07:36:49;;;;;;;18.30;11.02;;;8.60;67.20;;;;;;5031509;28;20029;-74
2024/01/14 07:39:14;;;;;;;16.77;11.35;;;9.10;65.90;;;;;;5031699;28;20119;-72
2024/01/14 07:41:40;;;;;;;15.55;10.98;;;9.60;65.00;;;;;;5031680;28;20066;-72
2024/01/14 07:44:06;;;;;;;18.50;11.30;;;9.90;64.50;;;;;;5031981;28;20049;-72
2024/01/14 07:46:32;;;;;;;20.27;12.05;;;9.60;63.80;;;;;;5032611;28;20124;-72
2024/01/14 07:48:57;;;;;;;14.70;10.43;;;9.10;64.50;;;;;;5017370;28;20049;-71
2024/01/14 07:51:23;;;;;;;14.98;11.00;;;8.80;65.40;;;;;;5035281;28;20445;-72
2024/01/14 07:53:49;;;;;;;17.40;11.45;;;8.60;66.00;;;;;;5035201;28;20061;-72
2024/01/14 07:56:15;;;;;;;16.38;11.48;;;8.30;66.20;;;;;;5035309;28;20446;-73
2024/01/14 07:58:40;;;;;;;16.25;11.23;;;8.30;67.00;;;;;;5035884;28;20034;-74
2024/01/14 08:01:06;;;;;;;16.35;11.38;;;8.20;66.90;;;;;;5035728;28;20037;-73
2024/01/14 08:03:32;;;;;;;18.50;12.00;;;8.10;67.20;;;;;;5035643;28;20129;-72
2024/01/14 08:05:58;;;;;;;19.63;11.73;;;7.90;67.20;;;;;;5051122;28;20041;-73
2024/01/14 08:08:24;;;;;;;16.65;11.90;;;7.90;67.50;;;;;;5058650;28;20033;-73
2024/01/14 08:10:51;;;;;;;22.65;13.40;;;7.90;67.60;;;;;;5049182;28;20499;-75
2024/01/14 08:13:17;;;;;;;19.33;12.65;;;8.00;67.60;;;;;;5040624;28;20034;-72
2024/01/14 08:15:43;;;;;;;17.90;11.98;;;8.00;67.80;;;;;;5035622;28;20033;-72
2024/01/14 08:18:09;;;;;;;20.67;12.38;;;8.10;68.00;;;;;;5055392;28;20060;-71
2024/01/14 08:20:35;;;;;;;17.70;13.13;;;8.00;67.20;;;;;;5055780;28;20462;-72
2024/01/14 08:23:01;;;;;;;19.30;12.57;;;8.00;67.70;;;;;;5055105;28;20028;-71
2024/01/14 08:25:27;;;;;;;20.70;13.73;;;8.00;67.50;;;;;;5054439;28;20703;-71
2024/01/14 08:27:53;;;;;;;21.65;14.68;;;8.00;67.90;;;;;;5054847;28;20044;-72
2024/01/14 08:30:19;;;;;;;20.23;13.77;;;8.10;67.90;;;;;;5034350;28;20033;-71
2024/01/14 08:32:45;;;;;;;19.95;13.77;;;8.10;67.90;;;;;;5053920;28;20032;-71
2024/01/14 08:35:17;;;;;;;22.45;13.60;;;8.20;67.90;;;;;;5054542;28;20445;-71
2024/01/14 08:37:43;;;;;;;18.15;13.63;;;8.20;69.00;;;;;;5054681;28;20587;-70
2024/01/14 08:40:14;;;;;;;27.02;16.05;;;8.30;67.60;;;;;;5051314;28;20120;-70
2024/01/14 08:42:44;;;;;;;23.13;13.80;;;8.30;67.30;;;;;;5051900;28;20029;-71
2024/01/14 08:45:13;;;;;;;25.65;14.48;;;8.40;67.60;;;;;;5054464;28;20125;-71
2024/01/14 08:47:39;;;;;;;21.27;13.82;;;8.40;67.60;;;;;;5035991;28;20124;-71
2024/01/14 08:50:09;;;;;;;23.30;15.13;;;8.50;67.30;;;;;;5053694;28;20107;-71
2024/01/14 08:52:37;;;;;;;20.25;13.65;;;8.50;67.70;;;;;;5054093;28;20068;-71
2024/01/14 08:55:08;;;;;;;21.95;14.07;;;8.70;67.40;;;;;;5054751;28;20579;-72
2024/01/14 08:57:34;;;;;;;24.23;14.48;;;8.80;68.10;;;;;;5054698;28;20041;-73
2024/01/14 08:59:59;;;;;;;19.85;14.20;;;8.90;67.00;;;;;;5054314;28;20396;-72
2024/01/14 09:02:28;;;;;;;20.92;13.65;;;8.90;67.10;;;;;;5053828;28;20033;-71
2024/01/14 09:04:54;;;;;;;19.95;13.80;;;9.00;67.20;;;;;;5053669;28;20408;-72
2024/01/14 09:07:19;;;;;;;19.75;14.15;;;9.20;67.20;;;;;;5035855;28;20033;-71
2024/01/14 09:09:45;;;;;;;21.77;14.60;;;9.30;67.00;;;;;;5053674;28;20078;-72
2024/01/14 09:12:11;;;;;;;22.02;15.55;;;9.30;66.90;;;;;;5027250;28;20041;-74
2024/01/14 09:14:37;;;;;;;19.80;14.48;;;9.30;67.00;;;;;;5035435;28;20099;-70
2024/01/14 09:17:03;;;;;;;20.52;14.45;;;9.40;67.00;;;;;;5027815;28;20123;-72
2024/01/14 09:19:29;;;;;;;20.50;14.95;;;9.40;67.10;;;;;;5015901;28;20545;-73
2024/01/14 09:21:55;;;;;;;22.00;14.80;;;9.50;67.50;;;;;;5034069;28;20037;-69
2024/01/14 09:24:21;;;;;;;23.92;15.48;;;9.50;67.30;;;;;;5030928;28;20394;-72
2024/01/14 09:26:47;;;;;;;26.77;18.75;;;9.50;67.20;;;;;;5038459;28;20060;-71
2024/01/14 09:29:13;;;;;;;21.00;14.70;;;9.60;67.40;;;;;;5053661;28;20041;-71
2024/01/14 09:31:39;;;;;;;17.63;13.23;;;9.70;67.30;;;;;;5053752;28;20043;-70
2024/01/14 09:34:04;;;;;;;16.88;12.55;;;9.70;67.40;;;;;;5049722;28;20037;-72
2024/01/14 09:36:33;;;;;;;26.80;14.25;;;9.80;67.70;;;;;;5034050;28;20041;-72
2024/01/14 09:38:59;;;;;;;21.98;13.30;;;9.80;68.20;;;;;;5035845;28;20025;-70
2024/01/14 09:41:28;;;;;;;20.00;14.57;;;9.90;67.60;;;;;;5053360;28;20615;-72
2024/01/14 09:43:54;;;;;;;19.27;13.52;;;10.10;67.10;;;;;;5035304;28;20033;-71
2024/01/14 09:46:20;;;;;;;18.38;13.40;;;10.20;66.70;;;;;;5027163;28;20068;-72
2024/01/14 09:48:47;;;;;;;24.80;14.05;;;10.30;66.70;;;;;;5035287;28;20759;-71
2024/01/14 09:51:17;;;;;;;21.63;14.60;;;10.40;67.00;;;;;;5053529;28;20037;-72
2024/01/14 09:53:43;;;;;;;22.13;14.73;;;10.50;67.00;;;;;;5035100;28;20033;-72
2024/01/14 09:56:10;;;;;;;22.40;13.80;;;10.60;67.00;;;;;;5040201;28;20396;-71
2024/01/14 09:58:39;;;;;;;17.58;13.48;;;10.70;66.80;;;;;;5034787;28;20036;-72
2024/01/14 10:01:08;;;;;;;17.90;14.00;;;10.70;66.60;;;;;;5019327;28;20041;-70
2024/01/14 10:03:34;;;;;;;19.42;12.90;;;10.80;66.80;;;;;;5053260;28;20573;-72
2024/01/14 10:06:01;;;;;;;23.20;15.15;;;10.90;66.90;;;;;;5030420;28;20140;-70
2024/01/14 10:08:27;;;;;;;21.52;14.43;;;11.00;67.00;;;;;;5043224;28;20029;-70
2024/01/14 10:10:53;;;;;;;20.02;13.88;;;11.00;66.90;;;;;;5053969;28;20041;-69
2024/01/14 10:13:22;;;;;;;24.80;16.92;;;11.10;67.00;;;;;;5053734;28;20539;-70
2024/01/14 10:15:49;;;;;;;20.25;14.65;;;11.30;67.20;;;;;;5039701;28;20022;-71
2024/01/14 10:18:15;;;;;;;23.42;15.80;;;11.40;67.20;;;;;;5035164;28;20076;-71
2024/01/14 10:20:41;;;;;;;21.77;14.65;;;11.40;67.10;;;;;;5053906;28;20075;-69
2024/01/14 10:23:07;;;;;;;21.15;15.63;;;11.50;67.00;;;;;;5052394;28;20392;-71
2024/01/14 10:25:33;;;;;;;23.70;16.00;;;11.60;67.10;;;;;;5038865;28;20029;-70
2024/01/14 10:28:05;;;;;;;24.42;17.17;;;11.70;67.10;;;;;;5052695;28;20021;-69
2024/01/14 10:30:30;;;;;;;20.30;15.30;;;11.90;67.10;;;;;;5046197;28;20045;-70
2024/01/14 10:32:56;;;;;;;20.00;14.60;;;12.00;67.00;;;;;;5049636;28;20358;-71
2024/01/14 10:35:24;;;;;;;21.80;14.52;;;12.20;67.10;;;;;;5034098;28;20056;-69
2024/01/14 22:48:38;;;;;;;8.90;4.28;;;13.00;85.50;;;;;;5009191;28;20056;-77
2024/01/14 22:51:03;;;;;;;11.95;5.03;;;13.00;85.80;;;;;;5050693;28;20080;-76
2024/01/14 22:53:29;;;;;;;11.27;4.28;;;13.00;84.90;;;;;;5049934;28;20469;-77
2024/01/14 22:55:55;;;;;;;11.10;4.43;;;13.00;84.70;;;;;;5032697;28;20413;-76
2024/01/14 22:58:20;;;;;;;6.43;3.70;;;13.10;84.70;;;;;;5014868;28;20175;-77
2024/01/14 23:00:46;;;;;;;11.70;4.45;;;13.10;84.50;;;;;;5032445;28;20033;-76
2024/01/14 23:03:12;;;;;;;11.23;4.55;;;13.10;84.30;;;;;;5042585;28;20032;-77
2024/01/14 23:05:38;;;;;;;12.85;4.47;;;13.10;84.30;;;;;;5051980;28;20041;-77
2024/01/14 23:08:04;;;;;;;8.73;4.50;;;13.10;84.30;;;;;;5038998;28;20140;-78
2024/01/14 23:10:30;;;;;;;7.55;3.80;;;13.10;84.20;;;;;;5043117;28;20111;-76
2024/01/14 23:12:55;;;;;;;11.93;3.88;;;13.10;84.10;;;;;;5052456;28;20119;-77
2024/01/14 23:15:21;;;;;;;8.82;3.90;;;13.10;83.80;;;;;;5034272;28;20093;-77
2024/01/14 23:17:47;;;;;;;8.07;3.75;;;13.10;83.80;;;;;;5055975;28;20412;-76
2024/01/14 23:20:13;;;;;;;10.13;3.88;;;13.10;83.70;;;;;;5034688;28;20040;-75
2024/01/14 23:22:38;;;;;;;14.48;8.07;;;13.10;83.90;;;;;;5018459;28;20040;-76
2024/01/14 23:25:05;;;;;;;18.42;12.20;;;13.10;83.70;;;;;;5030047;28;20493;-76
2024/01/14 23:27:32;;;;;;;21.88;16.73;;;13.00;83.60;;;;;;5036257;28;20037;-77
2024/01/14 23:29:58;;;;;;;26.95;18.60;;;12.90;83.60;;;;;;5050884;28;20029;-77
2024/01/14 23:32:24;;;;;;;25.83;20.10;;;12.80;83.60;;;;;;5056411;28;20033;-76
2024/01/14 23:34:50;;;;;;;25.45;20.65;;;12.80;83.90;;;;;;5053661;28;20484;-76
2024/01/14 23:37:15;;;;;;;32.05;23.10;;;12.70;84.00;;;;;;5036099;28;20503;-77
2024/01/14 23:39:41;;;;;;;28.35;23.05;;;12.60;83.80;;;;;;5035919;28;20045;-77
2024/01/14 23:42:07;;;;;;;26.95;21.98;;;12.60;84.00;;;;;;5036090;28;20037;-78
2024/01/14 23:44:32;;;;;;;27.27;20.95;;;12.50;84.00;;;;;;5018269;28;20026;-75
2024/01/14 23:46:58;;;;;;;29.35;22.83;;;12.50;84.20;;;;;;5035691;28;20485;-76
2024/01/14 23:49:24;;;;;;;27.17;21.70;;;12.50;84.30;;;;;;5028460;28;20048;-78
2024/01/14 23:51:50;;;;;;;26.40;22.80;;;12.50;84.30;;;;;;5017380;28;20120;-77
2024/01/14 23:54:17;;;;;;;32.53;23.05;;;12.40;84.20;;;;;;5017292;28;20036;-77
2024/01/14 23:56:42;;;;;;;29.80;22.83;;;12.40;84.20;;;;;;5031216;28;20029;-76
2024/01/14 23:59:08;;;;;;;27.90;22.27;;;12.40;84.30;;;;;;5035429;28;20033;-75
